NOAA/GLERL Met Station at Muskegon, MI

Previous 5 days (top of hour only)
See slso Previous 3 Hours (2 minute increments)
Jump down to Data
Switch to [English][Metric]
Zoom: Click and drag, Pan: shift-click and drag, Unzoom: double-click, Unzoom All





Zoom: Click and drag, Pan: shift-click and drag, Unzoom: double-click, Unzoom All

Note: Speed = mean wind during 2-minute period at top of hour,
Gust = max wind during 2-minute period at top of hour,
Peak = max wind during entire hour.
• See also 5-day windrose plot

NOAA/GLERL Met Station at Muskegon, MI

Previous 5 days (top of hour only)
See slso Previous 3 Hours (2 minute increments)
Jump up to Graphs
Switch to [English][Metric]
                  Wind  Wind  Wind   Air   Dew   Rel     Sta   PAR
                   Spd   Gst   Dir  Temp    Pt   Hum    Pres uE/m2/
YYYY-MM-DD   EDT   kts   kts   deg     F     F     %   in Hg   sec
2016-05-24 15:00  11.1  13.0   185  64.2  51.9  63.8   29.39   927
2016-05-24 14:00  10.1  12.4   194  62.6  52.5  69.2   29.39  2289
2016-05-24 13:00  13.0  15.0   185  61.7  51.9  69.8   29.39  2204
2016-05-24 12:00  14.4  15.7   189  61.5  51.0  68.1   29.40  1951
2016-05-24 11:00  12.2  13.6   182  60.3  49.5  67.2   29.39  2073
2016-05-24 10:00   6.8   8.0   181  60.1  48.3  64.8   29.39  1927
2016-05-24 09:00  12.1  12.8   208  58.8  47.7  66.3   29.38  1745
2016-05-24 08:00  15.7  17.1   192  58.5  47.4  66.4   29.36  1041
2016-05-24 07:00  16.3  19.2   206  58.6  46.5  63.6   29.36   362
2016-05-24 06:00  15.9  18.3   194  60.1  45.4  58.0   29.35     5
2016-05-24 05:00  17.3  19.1   193  60.6  44.9  55.8   29.34     2
2016-05-24 04:00  17.5  18.3   189  61.3  44.1  52.7   29.34     2
2016-05-24 03:00  16.3  17.7   189  61.9  44.0  51.4   29.34     2
2016-05-24 02:00  16.9  17.9   185  64.0  43.4  46.6   29.34     2
2016-05-24 01:00  10.5  14.0   167  66.9  40.1  37.0   29.33     2
2016-05-24 00:00   6.2   7.0   129  63.1  43.9  49.0   29.33     2
2016-05-23 23:00   6.8   7.4   131  63.5  43.9  48.4   29.33     2
2016-05-23 22:00   5.6   6.8   146  64.2  44.1  47.6   29.32     2
2016-05-23 21:00   3.3   3.9   171  66.6  44.8  45.0   29.33    43
2016-05-23 20:00   1.7   1.9   246  67.6  47.0  47.1   29.34   886
2016-05-23 19:00   2.5   2.7   243  66.0  47.5  50.8   29.34  1637
2016-05-23 18:00   3.7   3.9   295  64.9  48.9  55.7   29.35  1982
2016-05-23 17:00   4.3   5.1   288  64.2  49.8  59.0   29.37  2135
2016-05-23 16:00   4.9   5.4   232  63.9  46.2  52.2   29.39  2208
2016-05-23 15:00   7.0   8.4   195  65.8  45.4  47.2   29.41   885
2016-05-23 14:00   9.3  10.7   186  63.3  45.8  52.4   29.43  2222
2016-05-23 13:00  11.7  12.6   190  60.8  46.0  57.7   29.44  2192
2016-05-23 12:00  11.3  12.1   189  59.9  45.0  57.5   29.45  2142
2016-05-23 11:00   9.5  10.7   184  59.9  44.3  56.0   29.45  2064
2016-05-23 10:00   9.3  10.5   182  59.4  45.2  59.0   29.45  1907
2016-05-23 09:00   7.6   8.2   176  57.0  47.4  69.8   29.46  1621
2016-05-23 08:00   5.1   5.4   175  55.0  48.3  77.9   29.47  1137
2016-05-23 07:00   2.3   2.5   190  50.4  47.4  89.6   29.45   362
2016-05-23 06:00   1.2   2.1   217  51.4  47.6  86.7   29.43     5
2016-05-23 05:00   2.3   3.3   128  52.0  47.5  84.5   29.41     2
2016-05-23 04:00   4.9   5.8   114  52.5  47.7  83.6   29.39     2
2016-05-23 03:00   3.7   4.5   146  52.3  48.8  87.7   29.38     2
2016-05-23 02:00   5.8   6.2   174  51.3  48.6  90.4   29.39     2
2016-05-23 01:00   3.1   3.7   135  50.9  48.5  91.4   29.39     2
2016-05-23 00:00   2.9   3.1   196  50.5  48.8  93.7   29.41     2
2016-05-22 23:00   1.4   1.9   281  52.2  48.5  87.3   29.40     2
2016-05-22 22:00   2.9   3.5   311  52.3  48.5  86.5   29.39     2
2016-05-22 21:00   6.4   7.8   343  53.4  49.1  85.0   29.39    51
2016-05-22 20:00   6.4   7.4   310  55.2  49.6  81.2   29.39   847
2016-05-22 19:00  13.0  14.6   355  56.7  47.2  70.4   29.39  1594
2016-05-22 18:00  16.1  16.7   337  57.4  48.2  71.2   29.40  1941
2016-05-22 17:00  11.9  12.8   324  57.4  48.3  71.5   29.42  2079
2016-05-22 16:00  13.6  14.2   334  57.7  47.9  69.4   29.44  2143
2016-05-22 15:00   7.6   9.3   309  54.9  47.4  75.8   29.45   924
2016-05-22 14:00  10.1  11.7   320  57.0  47.5  70.3   29.46  2218
2016-05-22 13:00  10.5  11.5   333  57.0  46.9  68.6   29.47  2212
2016-05-22 12:00  12.2  13.0   331  57.6  46.8  66.9   29.47  2164
2016-05-22 11:00   5.4   6.2   322  54.5  47.6  77.4   29.47  2109
2016-05-22 10:00   3.5   5.6   104  63.1  46.1  53.3   29.48  1997
2016-05-22 09:00   1.9   2.7    76  58.1  42.3  55.2   29.48  1641
2016-05-22 08:00   3.1   4.7    73  56.8  38.8  50.5   29.47  1235
2016-05-22 07:00   7.0   8.4   100  53.6  42.3  65.2   29.44   383
2016-05-22 06:00   6.0   6.6    88  53.1  39.4  59.5   29.43     4
2016-05-22 05:00   6.6   8.6    70  54.5  37.7  52.6   29.43     2
2016-05-22 04:00   0.8   1.7    98  52.5  44.9  75.0   29.42     2
2016-05-22 03:00   2.5   6.2    26  52.3  45.2  76.3   29.42     2
2016-05-22 02:00   7.8   8.9   357  50.5  44.4  79.2   29.42     2
2016-05-22 01:00  13.2  14.6   343  50.7  44.7  79.5   29.43     2
2016-05-22 00:00   8.6   9.5     3  52.2  44.3  74.3   29.42     2
2016-05-21 22:00  14.8  15.7   348  52.5  44.3  73.4   29.42     2
2016-05-21 21:00  14.2  15.6   353  53.6  44.9  72.2   29.42    51
2016-05-21 20:00  14.0  16.3   349  55.2  44.6  67.0   29.43   962
2016-05-21 19:00  15.9  17.1   348  55.9  45.2  67.0   29.43  1579
2016-05-21 18:00  13.8  15.7   348  56.8  45.5  65.5   29.43  1825
2016-05-21 17:00  14.4  16.3   346  56.5  47.1  70.6   29.44  2002
2016-05-21 16:00  10.3  12.4   331  55.9  46.6  70.5   29.46  1194
2016-05-21 15:00  11.9  12.2   323  56.1  45.8  67.9   29.47  1029
2016-05-21 14:00  10.9  11.7   326  56.3  46.1  68.4   29.48  2357
2016-05-21 13:00   8.6   9.7   334  56.7  46.9  69.5   29.49  2259
2016-05-21 12:00   4.5   5.1   300  57.6  48.0  70.2   29.50  2086
2016-05-21 11:00   4.3   4.5   266  56.8  49.4  75.8   29.50  2235
2016-05-21 10:00   3.3   4.5    87  63.7  44.6  49.4   29.50  1983
2016-05-21 09:00   7.4   8.9    74  57.9  43.5  58.3   29.49   770
2016-05-21 08:00   5.4   6.4    70  56.1  40.8  56.0   29.49   525
2016-05-21 07:00   3.7   4.5    78  50.9  42.3  72.2   29.48   124
2016-05-21 06:00   3.3   3.5    77  52.7  38.4  57.9   29.47     3
2016-05-21 05:00   2.5   2.7    83  54.3  42.0  62.7   29.47     2
2016-05-21 04:00   3.5   4.1    44  56.8  38.6  50.1   29.47     2
2016-05-21 03:00   4.7   5.4    44  55.8  40.3  55.8   29.47     2
2016-05-21 02:00   6.2   7.0    90  59.4  36.7  42.4   29.48     2
2016-05-21 01:00   4.9   6.2    87  60.3  36.7  41.0   29.48     2
2016-05-21 00:00   4.7   6.2    74  61.3  36.0  38.4   29.49     2
2016-05-20 23:00   4.1   4.7    95  56.7  47.1  70.1   29.50     2
2016-05-20 22:00   6.8   8.6    44  63.9  36.2  35.4   29.49     2
2016-05-20 21:00   6.4   8.4    31  63.9  39.3  39.9   29.49    13
2016-05-20 20:00   8.6  11.1     9  59.0  44.6  58.5   29.49   170
2016-05-20 19:00  11.9  12.8   351  56.3  44.2  63.5   29.49   527
2016-05-20 18:00  13.6  14.4   354  57.0  43.4  59.9   29.51   726
2016-05-20 17:00  13.6  15.4   356  56.3  44.8  65.0   29.52  1097
2016-05-20 16:00  14.0  15.9   349  56.5  48.0  73.0   29.53  1477
2016-05-20 15:00  12.1  12.2   340  58.6  49.1  70.3   29.53  1500
2016-05-20 14:00   9.5   9.5   333  60.8  49.1  65.1   29.55  2342
2016-05-20 13:00   6.2   6.2   305  60.3  47.0  61.2   29.58  2406
2016-05-20 12:00   4.1   4.5   301  60.6  42.8  51.4   29.60  2205
2016-05-20 11:00   2.1   2.5   284  57.4  44.7  62.3   29.61  2174
2016-05-20 10:00   1.0   1.7   224  54.3  43.0  65.3   29.61  1772
2016-05-20 08:00   2.5   3.1   115  56.3  40.7  55.4   29.60  1078
2016-05-20 07:00   1.4   2.7    99  52.3  40.1  62.8   29.58   487
2016-05-20 06:00  10.1  11.3   104  50.2  42.5  74.7   29.56     4
2016-05-20 05:00   9.1  10.5   106  50.7  40.1  66.6   29.55     2
2016-05-20 04:00  10.1  10.9   107  50.5  40.8  69.0   29.56     2
2016-05-20 03:00   9.3   9.7   113  48.7  44.9  86.5   29.56     2
2016-05-20 02:00   8.9   9.1   117  49.1  43.8  81.7   29.56     2
2016-05-20 01:00   8.4   8.7   111  49.1  43.3  80.3   29.55     2
2016-05-20 00:00   6.2   6.8   106  50.7  43.0  74.6   29.56     2
2016-05-19 23:00   5.1   5.2    97  51.6  40.2  64.8   29.56     2
2016-05-19 22:00   5.8   6.0   115  53.2  41.2  63.3   29.56     2
2016-05-19 21:00   2.9   3.3    81  55.4  36.6  48.8   29.56    40
2016-05-19 20:00   2.1   2.9   180  55.6  37.6  50.4   29.57   549